createdAt,value
2018-12-15T00:00:06.222Z,101570.55
2018-12-15T00:01:08.684Z,101565.03
2018-12-15T00:02:11.188Z,101568.35
2018-12-15T00:03:13.674Z,101567.28
2018-12-15T00:04:16.210Z,101569.22
2018-12-15T00:05:18.848Z,101564.83
2018-12-15T00:06:21.345Z,101567.05
2018-12-15T00:07:23.813Z,101564.91
2018-12-15T00:08:26.271Z,101573.16
2018-12-15T00:09:28.749Z,101562.77
2018-12-15T00:10:31.222Z,101568.27
2018-12-15T00:11:33.699Z,101565.27
2018-12-15T00:12:36.269Z,101568.02
2018-12-15T00:13:38.822Z,101567.76
2018-12-15T00:14:41.371Z,101566.64
2018-12-15T00:15:43.918Z,101571.84
2018-12-15T00:16:46.414Z,101576.48
2018-12-15T00:17:49.362Z,101573.47
2018-12-15T00:18:51.860Z,101577.55
2018-12-15T00:19:54.362Z,101576.99
2018-12-15T00:20:56.906Z,101580.80
2018-12-15T00:21:59.375Z,101576.36
2018-12-15T00:23:01.858Z,101577.99
2018-12-15T00:24:04.324Z,101582.37
2018-12-15T00:25:06.827Z,101581.56
2018-12-15T00:26:09.306Z,101585.69
2018-12-15T00:27:11.797Z,101584.62
2018-12-15T00:28:14.278Z,101584.31
2018-12-15T00:29:16.786Z,101587.07
2018-12-15T00:30:19.287Z,101582.48
2018-12-15T00:31:22.042Z,101584.69
2018-12-15T00:32:24.544Z,101585.56
2018-12-15T00:33:27.013Z,101584.23
2018-12-15T00:34:29.472Z,101581.53
2018-12-15T00:35:31.956Z,101583.42
2018-12-15T00:36:34.424Z,101581.78
2018-12-15T00:37:37.039Z,101585.92
2018-12-15T00:38:39.519Z,101591.42
2018-12-15T00:39:42.000Z,101587.85
2018-12-15T00:40:44.506Z,101588.57
2018-12-15T00:41:46.984Z,101586.69
2018-12-15T00:42:49.445Z,101588.31
2018-12-15T00:43:51.942Z,101592.95
2018-12-15T00:44:54.407Z,101586.61
2018-12-15T00:45:56.889Z,101592.38
2018-12-15T00:46:59.369Z,101591.25
2018-12-15T00:48:01.869Z,101590.44
2018-12-15T00:49:04.350Z,101594.27
2018-12-15T00:50:06.907Z,101594.52
2018-12-15T00:51:09.484Z,101592.07
2018-12-15T00:52:11.979Z,101590.45
2018-12-15T00:53:14.450Z,101587.17
2018-12-15T00:54:16.930Z,101587.17
2018-12-15T00:55:19.406Z,101594.08
2018-12-15T00:56:21.957Z,101596.32
2018-12-15T00:57:24.488Z,101590.86
2018-12-15T00:58:27.044Z,101599.43
2018-12-15T00:59:29.525Z,101597.23
2018-12-15T01:00:32.061Z,101603.30
2018-12-15T01:01:34.566Z,101601.67
2018-12-15T01:02:37.032Z,101603.36
2018-12-15T01:03:39.493Z,101598.66
2018-12-15T01:04:41.961Z,101602.48
2018-12-15T01:05:44.455Z,101605.19
2018-12-15T01:06:46.958Z,101604.13
2018-12-15T01:07:49.437Z,101604.07
2018-12-15T01:08:51.900Z,101606.22
2018-12-15T01:09:54.356Z,101610.28
2018-12-15T01:10:56.845Z,101608.36
2018-12-15T01:11:59.358Z,101612.17
2018-12-15T01:13:01.821Z,101606.09
2018-12-15T01:14:04.299Z,101608.84
2018-12-15T01:15:06.777Z,101609.97
2018-12-15T01:16:09.258Z,101610.02
2018-12-15T01:17:11.773Z,101614.43
2018-12-15T01:18:14.330Z,101613.61
2018-12-15T01:19:16.810Z,101613.92
2018-12-15T01:20:19.282Z,101611.98
2018-12-15T01:21:21.762Z,101615.34
2018-12-15T01:22:24.259Z,101616.72
2018-12-15T01:23:26.753Z,101623.34
2018-12-15T01:24:29.244Z,101623.95
2018-12-15T01:25:31.722Z,101626.71
2018-12-15T01:26:34.203Z,101630.03
2018-12-15T01:27:36.694Z,101634.72
2018-12-15T01:28:39.185Z,101636.66
2018-12-15T01:29:41.652Z,101635.79
2018-12-15T01:30:44.131Z,101645.73
2018-12-15T01:31:46.606Z,101646.50
2018-12-15T01:32:49.106Z,101655.27
2018-12-15T01:33:51.612Z,101652.52
2018-12-15T01:34:54.105Z,101652.42
2018-12-15T01:35:56.620Z,101650.80
2018-12-15T01:36:59.078Z,101652.42
2018-12-15T01:38:01.564Z,101656.30
2018-12-15T01:39:06.208Z,101661.80
2018-12-15T01:40:08.816Z,101660.69
2018-12-15T01:41:11.298Z,101663.19
2018-12-15T01:42:13.774Z,101660.69
2018-12-15T01:43:16.285Z,101662.67
2018-12-15T01:44:18.798Z,101667.67
2018-12-15T01:45:21.293Z,101664.91
2018-12-15T01:46:23.773Z,101660.83
2018-12-15T01:47:27.038Z,101661.39
2018-12-15T01:48:29.785Z,101663.06
2018-12-15T01:49:32.258Z,101663.63
2018-12-15T01:50:34.740Z,101663.12
2018-12-15T01:51:37.312Z,101662.30
2018-12-15T01:52:39.767Z,101658.13
2018-12-15T01:53:42.262Z,101663.63
2018-12-15T01:54:44.749Z,101666.90
2018-12-15T01:55:47.236Z,101669.66
2018-12-15T01:56:49.719Z,101665.22
2018-12-15T01:57:52.210Z,101666.80
2018-12-15T01:58:54.702Z,101668.42
2018-12-15T01:59:57.399Z,101661.48
2018-12-15T02:00:59.867Z,101664.80
2018-12-15T02:02:02.362Z,101671.69
2018-12-15T02:03:04.913Z,101670.61
2018-12-15T02:04:07.392Z,101669.52
2018-12-15T02:05:09.885Z,101664.56
2018-12-15T02:06:12.352Z,101664.30
2018-12-15T02:07:14.837Z,101669.30
2018-12-15T02:08:17.311Z,101670.12
2018-12-15T02:09:19.860Z,101670.16
2018-12-15T02:10:22.370Z,101666.64
2018-12-15T02:11:24.861Z,101672.15
2018-12-15T02:12:27.342Z,101671.08
2018-12-15T02:13:30.352Z,101663.38
2018-12-15T02:14:32.861Z,101675.20
2018-12-15T02:15:35.365Z,101669.70
2018-12-15T02:16:37.846Z,101668.32
2018-12-15T02:17:40.333Z,101665.01
2018-12-15T02:18:42.808Z,101664.96
2018-12-15T02:19:45.351Z,101662.16
2018-12-15T02:20:47.830Z,101669.55
2018-12-15T02:21:50.322Z,101667.57
2018-12-15T02:22:52.799Z,101662.06
2018-12-15T02:23:55.282Z,101664.55
2018-12-15T02:24:57.769Z,101670.87
2018-12-15T02:26:00.246Z,101674.44
2018-12-15T02:27:02.712Z,101668.63
2018-12-15T02:28:05.205Z,101668.38
2018-12-15T02:29:07.688Z,101668.12
2018-12-15T02:30:10.267Z,101665.94
2018-12-15T02:31:12.764Z,101671.98
2018-12-15T02:32:15.262Z,101667.06
2018-12-15T02:33:17.787Z,101667.63
2018-12-15T02:34:20.280Z,101664.61
2018-12-15T02:35:22.802Z,101663.84
2018-12-15T02:36:25.293Z,101665.27
2018-12-15T02:37:29.769Z,101663.63
2018-12-15T02:38:32.230Z,101662.55
2018-12-15T02:39:34.802Z,101655.42
2018-12-15T02:40:37.302Z,101665.31
2018-12-15T02:41:47.049Z,101666.12
2018-12-15T02:42:44.357Z,101663.33
2018-12-15T02:43:46.838Z,101660.83
2018-12-15T02:44:49.334Z,101662.16
2018-12-15T02:45:51.830Z,101666.03
2018-12-15T02:46:54.317Z,101667.36
2018-12-15T02:47:56.793Z,101664.30
2018-12-15T02:48:59.252Z,101664.55
2018-12-15T02:50:01.727Z,101660.63
2018-12-15T02:51:04.216Z,101658.13
2018-12-15T02:52:06.695Z,101664.14
2018-12-15T02:53:09.180Z,101657.70
2018-12-15T02:54:11.636Z,101660.97
2018-12-15T02:55:14.129Z,101651.58
2018-12-15T02:56:16.608Z,101650.41
2018-12-15T02:57:19.099Z,101654.55
2018-12-15T02:58:21.582Z,101648.78
2018-12-15T02:59:24.180Z,101646.89
2018-12-15T03:00:26.729Z,101649.90
2018-12-15T03:01:29.212Z,101647.09
2018-12-15T03:02:31.696Z,101646.23
2018-12-15T03:03:34.152Z,101650.55
2018-12-15T03:04:36.640Z,101648.05
2018-12-15T03:05:39.141Z,101652.17
2018-12-15T03:06:41.631Z,101653.98
2018-12-15T03:07:44.109Z,101652.87
2018-12-15T03:08:46.591Z,101647.97
2018-12-15T03:09:49.063Z,101645.67
2018-12-15T03:10:51.601Z,101642.61
2018-12-15T03:11:54.098Z,101643.41
2018-12-15T03:12:56.654Z,101639.27
2018-12-15T03:13:59.173Z,101638.03
2018-12-15T03:15:01.652Z,101638.54
2018-12-15T03:16:04.221Z,101633.23
2018-12-15T03:17:06.861Z,101633.73
2018-12-15T03:18:09.323Z,101629.59
2018-12-15T03:19:11.866Z,101628.95
2018-12-15T03:20:14.396Z,101626.20
2018-12-15T03:21:16.860Z,101631.97
2018-12-15T03:22:19.423Z,101625.33
2018-12-15T03:23:21.908Z,101624.91
2018-12-15T03:24:24.393Z,101623.13
2018-12-15T03:25:26.885Z,101619.00
2018-12-15T03:26:29.482Z,101622.00
2018-12-15T03:27:31.981Z,101618.12
2018-12-15T03:28:34.446Z,101619.44
2018-12-15T03:29:36.936Z,101620.17
2018-12-15T03:30:39.597Z,101613.53
2018-12-15T03:31:42.095Z,101619.30
2018-12-15T03:32:44.614Z,101617.35
2018-12-15T03:33:47.100Z,101615.91
2018-12-15T03:34:49.563Z,101613.85
2018-12-15T03:35:52.024Z,101613.03
2018-12-15T03:36:54.498Z,101615.17
2018-12-15T03:37:56.981Z,101612.13
2018-12-15T03:38:59.486Z,101608.81
2018-12-15T03:40:01.945Z,101614.45
2018-12-15T03:41:04.422Z,101614.20
2018-12-15T03:42:06.917Z,101607.55
2018-12-15T03:43:09.418Z,101615.20
2018-12-15T03:44:11.883Z,101611.04
2018-12-15T03:45:14.347Z,101610.44
2018-12-15T03:46:16.801Z,101612.33
2018-12-15T03:47:19.276Z,101609.31
2018-12-15T03:48:21.767Z,101608.75
2018-12-15T03:49:24.244Z,101603.98
2018-12-15T03:50:26.719Z,101604.55
2018-12-15T03:51:29.187Z,101608.37
2018-12-15T03:52:31.716Z,101607.74
2018-12-15T03:53:34.197Z,101603.35
2018-12-15T03:54:36.674Z,101599.72
2018-12-15T03:55:39.204Z,101606.80
2018-12-15T03:56:41.678Z,101603.13
2018-12-15T03:57:44.170Z,101605.76
2018-12-15T03:58:46.666Z,101605.02
2018-12-15T03:59:49.279Z,101606.91
2018-12-15T04:00:51.755Z,101608.78
2018-12-15T04:01:54.253Z,101596.11
2018-12-15T04:02:56.718Z,101610.23
2018-12-15T04:03:59.233Z,101602.63
2018-12-15T04:05:01.707Z,101597.92
2018-12-15T04:06:04.197Z,101596.86
2018-12-15T04:07:06.694Z,101602.63
2018-12-15T04:08:09.176Z,101609.84
2018-12-15T04:09:11.671Z,101600.12
2018-12-15T04:10:14.170Z,101598.98
2018-12-15T04:11:16.646Z,101601.75
2018-12-15T04:12:19.150Z,101602.00
2018-12-15T04:13:21.623Z,101603.70
2018-12-15T04:14:24.104Z,101600.88
2018-12-15T04:15:26.588Z,101601.75
2018-12-15T04:16:29.164Z,101608.52
2018-12-15T04:17:31.662Z,101598.11
2018-12-15T04:18:34.131Z,101598.11
2018-12-15T04:19:36.608Z,101594.22
2018-12-15T04:20:39.116Z,101598.36
2018-12-15T04:21:41.649Z,101599.73
2018-12-15T04:22:44.128Z,101600.55
2018-12-15T04:23:47.399Z,101593.65
2018-12-15T04:24:50.087Z,101594.78
2018-12-15T04:25:52.585Z,101598.61
2018-12-15T04:26:55.067Z,101599.67
2018-12-15T04:27:57.524Z,101596.30
2018-12-15T04:29:00.015Z,101596.55
2018-12-15T04:30:02.835Z,101595.17
2018-12-15T04:31:05.318Z,101596.80
2018-12-15T04:32:07.863Z,101596.87
2018-12-15T04:33:10.342Z,101597.72
2018-12-15T04:34:12.815Z,101599.38
2018-12-15T04:35:15.329Z,101592.41
2018-12-15T04:36:18.655Z,101595.98
2018-12-15T04:37:21.116Z,101595.84
2018-12-15T04:38:23.598Z,101594.84
2018-12-15T04:39:26.081Z,101593.75
2018-12-15T04:40:28.752Z,101597.33
2018-12-15T04:41:31.249Z,101591.06
2018-12-15T04:42:33.740Z,101598.72
2018-12-15T04:43:36.222Z,101595.45
2018-12-15T04:44:38.702Z,101592.13
2018-12-15T04:45:41.200Z,101596.34
2018-12-15T04:46:43.678Z,101598.61
2018-12-15T04:47:46.173Z,101592.91
2018-12-15T04:48:48.764Z,101594.11
2018-12-15T04:49:51.241Z,101596.91
2018-12-15T04:50:53.738Z,101592.09
2018-12-15T04:51:56.218Z,101592.72
2018-12-15T04:52:58.686Z,101595.23
2018-12-15T04:54:01.159Z,101585.64
2018-12-15T04:55:04.092Z,101593.61
2018-12-15T04:56:06.598Z,101590.78
2018-12-15T04:57:09.083Z,101592.47
2018-12-15T04:58:11.566Z,101594.11
2018-12-15T04:59:14.058Z,101595.98
2018-12-15T05:00:16.526Z,101594.35
2018-12-15T05:01:19.016Z,101592.34
2018-12-15T05:02:21.502Z,101589.72
2018-12-15T05:03:23.979Z,101587.45
2018-12-15T05:04:26.469Z,101590.46
2018-12-15T05:05:28.946Z,101590.81
2018-12-15T05:06:31.467Z,101592.02
2018-12-15T05:07:33.973Z,101593.15
2018-12-15T05:08:36.473Z,101590.45
2018-12-15T05:09:38.959Z,101593.97
2018-12-15T05:10:41.420Z,101595.23
2018-12-15T05:11:43.919Z,101593.05
2018-12-15T05:12:46.390Z,101594.59
2018-12-15T05:13:48.871Z,101591.16
2018-12-15T05:14:51.351Z,101592.10
2018-12-15T05:15:53.845Z,101593.90
2018-12-15T05:16:56.346Z,101591.27
2018-12-15T05:17:58.826Z,101591.94
2018-12-15T05:19:01.337Z,101594.89
2018-12-15T05:20:04.477Z,101594.16
2018-12-15T05:21:07.093Z,101593.13
2018-12-15T05:22:09.777Z,101597.65
2018-12-15T05:23:12.261Z,101596.14
2018-12-15T05:24:14.724Z,101593.73
2018-12-15T05:25:17.221Z,101593.84
2018-12-15T05:26:19.711Z,101596.98
2018-12-15T05:27:22.272Z,101590.42
2018-12-15T05:28:24.750Z,101594.88
2018-12-15T05:29:27.218Z,101595.75
2018-12-15T05:30:29.716Z,101597.44
2018-12-15T05:31:32.198Z,101592.48
2018-12-15T05:32:34.681Z,101595.50
2018-12-15T05:33:37.169Z,101600.89
2018-12-15T05:34:39.678Z,101598.11
2018-12-15T05:35:42.148Z,101593.98
2018-12-15T05:36:44.641Z,101601.91
2018-12-15T05:37:47.120Z,101596.14
2018-12-15T05:38:49.579Z,101603.16
2018-12-15T05:39:52.119Z,101595.64
2018-12-15T05:40:54.594Z,101601.12
2018-12-15T05:41:57.093Z,101600.47
2018-12-15T05:42:59.636Z,101596.58
2018-12-15T05:44:02.164Z,101604.42
2018-12-15T05:45:05.571Z,101608.18
2018-12-15T05:46:08.047Z,101601.03
2018-12-15T05:47:10.534Z,101603.94
2018-12-15T05:48:13.027Z,101603.06
2018-12-15T05:49:15.514Z,101602.81
2018-12-15T05:50:17.980Z,101595.03
2018-12-15T05:51:20.538Z,101597.54
2018-12-15T05:52:23.037Z,101591.95
2018-12-15T05:53:25.549Z,101595.47
2018-12-15T05:54:28.029Z,101591.22
2018-12-15T05:55:30.514Z,101587.58
2018-12-15T05:56:32.990Z,101597.55
2018-12-15T05:57:35.483Z,101591.72
2018-12-15T05:58:37.975Z,101593.09
2018-12-15T05:59:40.448Z,101590.41
2018-12-15T06:00:42.926Z,101590.91
2018-12-15T06:01:45.400Z,101587.44
2018-12-15T06:02:48.006Z,101591.52
2018-12-15T06:03:50.513Z,101592.89
2018-12-15T06:04:53.880Z,101592.58
2018-12-15T06:05:56.359Z,101588.19
2018-12-15T06:06:58.842Z,101588.19
2018-12-15T06:08:01.304Z,101588.50
2018-12-15T06:09:05.049Z,101586.31
2018-12-15T06:10:07.616Z,101589.82
2018-12-15T06:11:10.091Z,101593.61
2018-12-15T06:12:12.570Z,101595.23
2018-12-15T06:13:15.050Z,101590.34
2018-12-15T06:14:17.550Z,101595.23
2018-12-15T06:15:20.101Z,101598.00
2018-12-15T06:16:22.601Z,101594.85
2018-12-15T06:17:25.074Z,101599.24
2018-12-15T06:18:31.655Z,101593.72
2018-12-15T06:19:32.104Z,101593.65
2018-12-15T06:20:34.583Z,101594.47
2018-12-15T06:21:37.064Z,101593.58
2018-12-15T06:22:39.556Z,101594.22
2018-12-15T06:23:42.035Z,101590.14
2018-12-15T06:24:44.515Z,101591.59
2018-12-15T06:25:47.062Z,101592.72
2018-12-15T06:26:49.538Z,101594.60
2018-12-15T06:27:51.996Z,101593.29
2018-12-15T06:28:54.512Z,101595.59
2018-12-15T06:29:57.113Z,101590.95
2018-12-15T06:30:59.594Z,101594.60
2018-12-15T06:32:02.098Z,101595.41
2018-12-15T06:33:04.590Z,101593.22
2018-12-15T06:34:07.178Z,101594.60
2018-12-15T06:35:09.654Z,101602.00
2018-12-15T06:36:12.125Z,101599.80
2018-12-15T06:37:14.599Z,101599.80
2018-12-15T06:38:17.083Z,101599.73
2018-12-15T06:39:19.574Z,101602.25
2018-12-15T06:40:22.032Z,101605.19
2018-12-15T06:41:24.504Z,101598.36
2018-12-15T06:42:26.965Z,101597.79
2018-12-15T06:43:29.703Z,101606.33
2018-12-15T06:44:32.195Z,101604.62
2018-12-15T06:45:34.670Z,101604.91
2018-12-15T06:46:37.206Z,101596.91
2018-12-15T06:47:39.681Z,101601.30
2018-12-15T06:48:42.159Z,101597.72
2018-12-15T06:49:44.734Z,101606.58
2018-12-15T06:50:47.207Z,101604.62
2018-12-15T06:51:49.690Z,101607.10
2018-12-15T06:52:52.177Z,101607.03
2018-12-15T06:53:54.736Z,101607.03
2018-12-15T06:54:57.235Z,101611.17
2018-12-15T06:55:59.852Z,101610.05
2018-12-15T06:57:02.324Z,101610.54
2018-12-15T06:58:04.842Z,101610.86
2018-12-15T06:59:07.328Z,101608.34
2018-12-15T07:00:09.944Z,101609.97
2018-12-15T07:01:12.478Z,101611.92
2018-12-15T07:02:14.970Z,101613.80
2018-12-15T07:03:17.458Z,101612.48
2018-12-15T07:04:19.969Z,101608.52
2018-12-15T07:05:22.538Z,101609.34
2018-12-15T07:06:25.042Z,101609.91
2018-12-15T07:07:27.522Z,101611.53
2018-12-15T07:08:30.013Z,101612.91
2018-12-15T07:09:32.502Z,101610.79
2018-12-15T07:10:35.024Z,101607.39
2018-12-15T07:11:37.524Z,101609.52
2018-12-15T07:12:40.108Z,101604.62
2018-12-15T07:13:42.594Z,101599.24
2018-12-15T07:14:45.083Z,101605.76
2018-12-15T07:15:47.614Z,101595.87
2018-12-15T07:16:50.110Z,101590.84
2018-12-15T07:17:52.614Z,101594.08
2018-12-15T07:18:55.126Z,101597.11
2018-12-15T07:19:57.664Z,101590.50
2018-12-15T07:21:00.241Z,101589.87
2018-12-15T07:22:02.730Z,101592.00
2018-12-15T07:23:05.206Z,101587.83
2018-12-15T07:24:07.702Z,101594.94
2018-12-15T07:25:11.352Z,101595.06
2018-12-15T07:26:13.854Z,101592.75
2018-12-15T07:27:16.349Z,101593.79
2018-12-15T07:28:18.836Z,101594.48
2018-12-15T07:29:21.299Z,101593.20
2018-12-15T07:30:23.800Z,101590.87
2018-12-15T07:31:26.304Z,101593.47
2018-12-15T07:32:28.801Z,101595.72
2018-12-15T07:33:31.301Z,101591.97
2018-12-15T07:34:33.778Z,101594.01
2018-12-15T07:35:36.347Z,101586.89
2018-12-15T07:36:39.022Z,101586.33
2018-12-15T07:38:19.534Z,101588.50
2018-12-15T07:39:22.004Z,101583.19
2018-12-15T07:40:24.514Z,101582.07
2018-12-15T07:41:26.978Z,101590.28
2018-12-15T07:42:29.477Z,101588.04
2018-12-15T07:43:31.973Z,101591.15
2018-12-15T07:44:34.455Z,101595.53
2018-12-15T07:45:37.024Z,101591.71
2018-12-15T07:46:44.647Z,101597.53
2018-12-15T07:47:47.162Z,101596.50
2018-12-15T07:48:51.522Z,101596.45
2018-12-15T07:49:54.187Z,101589.63
2018-12-15T07:50:56.674Z,101582.48
2018-12-15T07:51:59.150Z,101591.77
2018-12-15T07:53:01.754Z,101588.19
2018-12-15T07:54:04.224Z,101587.50
2018-12-15T07:55:06.772Z,101584.03
2018-12-15T07:56:09.250Z,101588.26
2018-12-15T07:57:11.738Z,101583.33
2018-12-15T07:58:14.261Z,101587.20
2018-12-15T07:59:16.733Z,101588.12
2018-12-15T08:00:19.341Z,101591.43
2018-12-15T08:01:21.842Z,101591.43
2018-12-15T08:02:24.338Z,101592.50
2018-12-15T08:03:26.847Z,101584.30
2018-12-15T08:04:29.308Z,101587.66
2018-12-15T08:05:31.844Z,101590.97
2018-12-15T08:06:34.347Z,101586.28
2018-12-15T08:07:36.920Z,101588.17
2018-12-15T08:08:39.426Z,101592.55
2018-12-15T08:09:41.981Z,101588.77
2018-12-15T08:10:50.046Z,101589.86
2018-12-15T08:11:58.261Z,101594.59
2018-12-15T08:13:02.718Z,101597.86
2018-12-15T08:14:07.198Z,101598.68
2018-12-15T08:15:09.865Z,101605.00
2018-12-15T08:16:12.366Z,101598.41
2018-12-15T08:17:14.859Z,101594.79
2018-12-15T08:18:17.324Z,101601.62
2018-12-15T08:19:19.830Z,101596.02
2018-12-15T08:20:22.728Z,101604.42
2018-12-15T08:21:25.322Z,101604.33
2018-12-15T08:22:27.788Z,101596.25
2018-12-15T08:23:30.278Z,101602.73
2018-12-15T08:24:32.883Z,101606.73
2018-12-15T08:25:35.372Z,101602.05
2018-12-15T08:26:37.952Z,101600.26
2018-12-15T08:27:40.426Z,101601.78
2018-12-15T08:28:42.967Z,101604.20
2018-12-15T08:29:45.460Z,101605.00
2018-12-15T08:30:48.036Z,101604.64
2018-12-15T08:31:52.119Z,101600.95
2018-12-15T08:32:54.654Z,101599.19
2018-12-15T08:33:57.135Z,101607.09
2018-12-15T08:34:59.650Z,101606.48
2018-12-15T08:36:02.149Z,101605.09
2018-12-15T08:37:04.639Z,101604.52
2018-12-15T08:38:07.103Z,101603.39
2018-12-15T08:39:09.592Z,101603.64
2018-12-15T08:40:12.344Z,101600.83
2018-12-15T08:41:14.804Z,101605.52
2018-12-15T08:42:17.366Z,101604.77
2018-12-15T08:43:19.864Z,101606.95
2018-12-15T08:44:22.363Z,101607.47
2018-12-15T08:45:24.949Z,101600.66
2018-12-15T08:46:27.436Z,101602.59
2018-12-15T08:47:29.920Z,101600.97
2018-12-15T08:48:32.397Z,101602.91
2018-12-15T08:49:34.897Z,101600.15
2018-12-15T08:50:37.586Z,101601.22
2018-12-15T08:51:40.084Z,101601.50
2018-12-15T08:52:42.580Z,101608.90
2018-12-15T08:53:45.080Z,101600.31
2018-12-15T08:54:47.554Z,101609.66
2018-12-15T08:55:50.198Z,101606.91
2018-12-15T08:56:52.692Z,101609.41
2018-12-15T08:57:55.171Z,101608.98
2018-12-15T08:58:57.633Z,101609.80
2018-12-15T09:00:00.108Z,101613.68
2018-12-15T09:01:02.625Z,101613.94
2018-12-15T09:02:05.482Z,101616.69
2018-12-15T09:03:08.904Z,101614.69
2018-12-15T09:04:11.374Z,101620.48
2018-12-15T09:05:13.854Z,101615.11
2018-12-15T09:06:16.365Z,101617.87
2018-12-15T09:07:19.053Z,101623.64
2018-12-15T09:08:21.555Z,101612.55
2018-12-15T09:09:24.070Z,101613.55
2018-12-15T09:10:26.536Z,101613.78
2018-12-15T09:11:29.042Z,101617.86
2018-12-15T09:12:31.527Z,101618.48
2018-12-15T09:13:34.041Z,101621.80
2018-12-15T09:14:36.540Z,101613.84
2018-12-15T09:15:39.008Z,101617.13
2018-12-15T09:16:41.535Z,101617.19
2018-12-15T09:17:44.010Z,101612.73
2018-12-15T09:18:46.494Z,101620.51
2018-12-15T09:19:48.980Z,101616.74
2018-12-15T09:20:51.452Z,101619.30
2018-12-15T09:21:54.015Z,101616.86
2018-12-15T09:22:56.527Z,101617.98
2018-12-15T09:23:59.017Z,101620.74
2018-12-15T09:25:01.518Z,101629.83
2018-12-15T09:26:04.085Z,101625.38
2018-12-15T09:27:06.584Z,101626.26
2018-12-15T09:28:09.084Z,101628.20
2018-12-15T09:29:11.572Z,101632.36
2018-12-15T09:30:14.051Z,101622.97
2018-12-15T09:31:16.531Z,101626.00
2018-12-15T09:32:19.040Z,101623.25
2018-12-15T09:33:21.626Z,101630.08
2018-12-15T09:34:24.092Z,101628.90
2018-12-15T09:35:26.585Z,101633.80
2018-12-15T09:36:29.052Z,101633.55
2018-12-15T09:37:31.568Z,101632.67
2018-12-15T09:38:34.050Z,101627.41
2018-12-15T09:39:36.526Z,101632.36
2018-12-15T09:40:39.592Z,101640.04
2018-12-15T09:41:42.071Z,101634.22
2018-12-15T09:42:44.575Z,101636.97
2018-12-15T09:43:47.070Z,101636.60
2018-12-15T09:44:49.568Z,101630.21
2018-12-15T09:45:52.042Z,101624.63
2018-12-15T09:46:54.580Z,101624.57
2018-12-15T09:47:57.078Z,101620.19
2018-12-15T09:48:59.558Z,101624.89
2018-12-15T09:50:02.065Z,101625.20
2018-12-15T09:51:04.657Z,101631.28
2018-12-15T09:52:07.157Z,101632.41
2018-12-15T09:53:09.744Z,101627.95
2018-12-15T09:54:12.236Z,101629.20
2018-12-15T09:55:14.805Z,101621.38
2018-12-15T09:56:17.594Z,101626.56
2018-12-15T09:57:20.102Z,101621.05
2018-12-15T09:58:22.729Z,101616.03
2018-12-15T09:59:25.211Z,101614.03
2018-12-15T10:00:27.709Z,101622.75
2018-12-15T10:01:30.295Z,101611.41
2018-12-15T10:02:32.763Z,101622.06
2018-12-15T10:03:35.262Z,101617.23
2018-12-15T10:04:37.738Z,101609.37
2018-12-15T10:05:40.253Z,101607.18
2018-12-15T10:06:42.774Z,101605.31
2018-12-15T10:07:45.254Z,101607.85
2018-12-15T10:08:47.754Z,101604.94
2018-12-15T10:09:50.250Z,101608.05
2018-12-15T10:10:52.720Z,101598.73
2018-12-15T10:11:55.214Z,101600.71
2018-12-15T10:12:57.723Z,101600.76
2018-12-15T10:14:00.241Z,101601.58
2018-12-15T10:15:02.704Z,101601.88
2018-12-15T10:16:05.168Z,101598.36
2018-12-15T10:17:08.937Z,101604.73
2018-12-15T10:18:11.923Z,101599.63
2018-12-15T10:19:14.415Z,101595.35
2018-12-15T10:20:16.880Z,101600.73
2018-12-15T10:21:19.394Z,101597.08
2018-12-15T10:22:21.886Z,101592.27
2018-12-15T10:23:24.412Z,101597.63
2018-12-15T10:24:26.903Z,101593.74
2018-12-15T10:25:29.404Z,101596.09
2018-12-15T10:26:31.919Z,101595.34
2018-12-15T10:27:34.410Z,101589.69
2018-12-15T10:28:37.062Z,101585.34
2018-12-15T10:29:45.262Z,101587.44
2018-12-15T10:30:53.429Z,101583.61
2018-12-15T10:32:01.636Z,101574.59
2018-12-15T10:33:04.267Z,101578.19
2018-12-15T10:34:06.754Z,101575.44
2018-12-15T10:35:09.255Z,101573.77
2018-12-15T10:36:11.753Z,101574.06
2018-12-15T10:37:14.242Z,101577.59
2018-12-15T10:38:16.754Z,101569.59
2018-12-15T10:39:19.254Z,101570.89
2018-12-15T10:40:21.885Z,101574.42
2018-12-15T10:41:24.353Z,101570.56
2018-12-15T10:42:26.834Z,101569.94
2018-12-15T10:43:29.320Z,101572.03
2018-12-15T10:44:31.811Z,101566.53
2018-12-15T10:45:35.162Z,101561.96
2018-12-15T10:46:37.689Z,101553.50
2018-12-15T10:47:40.197Z,101560.43
2018-12-15T10:48:42.737Z,101555.56
2018-12-15T10:49:45.260Z,101556.97
2018-12-15T10:50:47.992Z,101545.20
2018-12-15T10:51:50.487Z,101547.98
2018-12-15T10:52:52.984Z,101545.79
2018-12-15T10:53:55.474Z,101551.05
2018-12-15T10:54:57.965Z,101547.20
2018-12-15T10:56:00.450Z,101545.86
2018-12-15T10:57:02.926Z,101547.52
2018-12-15T10:58:05.419Z,101548.98
2018-12-15T10:59:07.907Z,101541.37
2018-12-15T11:00:12.650Z,101544.47
2018-12-15T11:01:20.832Z,101543.15
2018-12-15T11:02:23.310Z,101540.22
2018-12-15T11:03:25.814Z,101542.97
2018-12-15T11:04:28.294Z,101532.84
2018-12-15T11:05:30.779Z,101542.44
2018-12-15T11:06:33.285Z,101544.34
2018-12-15T11:07:35.783Z,101541.25
2018-12-15T11:08:38.248Z,101540.34
2018-12-15T11:09:40.728Z,101537.75
2018-12-15T11:10:43.212Z,101542.78
2018-12-15T11:11:45.780Z,101539.87
2018-12-15T11:12:48.271Z,101544.11
2018-12-15T11:13:50.758Z,101540.39
2018-12-15T11:14:53.219Z,101541.61
2018-12-15T11:15:55.770Z,101540.11
2018-12-15T11:16:58.266Z,101535.55
2018-12-15T11:18:00.728Z,101532.42
2018-12-15T11:19:03.286Z,101518.75
2018-12-15T11:20:05.894Z,101513.11
2018-12-15T11:21:08.379Z,101510.52
2018-12-15T11:22:10.881Z,101508.27
2018-12-15T11:23:13.480Z,101507.92
2018-12-15T11:24:15.962Z,101509.25
2018-12-15T11:25:18.491Z,101507.01
2018-12-15T11:26:21.010Z,101508.32
2018-12-15T11:27:23.484Z,101512.19
2018-12-15T11:28:25.973Z,101513.56
2018-12-15T11:29:28.466Z,101505.84
2018-12-15T11:30:30.960Z,101506.95
2018-12-15T11:31:33.445Z,101503.01
2018-12-15T11:32:35.904Z,101502.09
2018-12-15T11:33:38.428Z,101502.84
2018-12-15T11:34:40.913Z,101497.80
2018-12-15T11:35:43.398Z,101498.49
2018-12-15T11:36:45.899Z,101500.78
2018-12-15T11:37:48.380Z,101496.55
2018-12-15T11:38:50.874Z,101496.85
2018-12-15T11:39:53.373Z,101497.67
2018-12-15T11:40:55.885Z,101493.77
2018-12-15T11:41:58.462Z,101493.97
2018-12-15T11:43:00.931Z,101494.03
2018-12-15T11:44:03.392Z,101488.52
2018-12-15T11:45:06.000Z,101485.45
2018-12-15T11:46:08.503Z,101491.53
2018-12-15T11:47:11.010Z,101477.14
2018-12-15T11:48:13.570Z,101481.42
2018-12-15T11:49:16.057Z,101466.70
2018-12-15T11:50:18.607Z,101462.06
2018-12-15T11:51:21.131Z,101462.93
2018-12-15T11:52:23.729Z,101450.28
2018-12-15T11:53:26.226Z,101454.13
2018-12-15T11:54:28.717Z,101454.44